sensor_id;sensor_type;location;lat;lon;timestamp;temperature;humidity
21487;DHT22;10905;50.822;4.336;2024-01-15T00:01:14;3.50;99.90
21487;DHT22;10905;50.822;4.336;2024-01-15T00:03:40;3.40;99.90
21487;DHT22;10905;50.822;4.336;2024-01-15T00:06:05;3.40;99.90
21487;DHT22;10905;50.822;4.336;2024-01-15T00:08:31;3.30;99.90
21487;DHT22;10905;50.822;4.336;2024-01-15T00:10:57;3.40;99.90
21487;DHT22;10905;50.822;4.336;2024-01-15T00:13:22;3.40;99.90
21487;DHT22;10905;50.822;4.336;2024-01-15T00:15:48;3.40;99.90
21487;DHT22;10905;50.822;4.336;2024-01-15T00:18:13;3.30;99.90
21487;DHT22;10905;50.822;4.336;2024-01-15T00:20:39;3.30;99.90
21487;DHT22;10905;50.822;4.336;2024-01-15T00:23:04;3.30;99.90
21487;DHT22;10905;50.822;4.336;2024-01-15T00:25:30;3.30;99.90
21487;DHT22;10905;50.822;4.336;2024-01-15T00:27:56;3.30;99.90
21487;DHT22;10905;50.822;4.336;2024-01-15T00:30:21;3.30;99.90
21487;DHT22;10905;50.822;4.336;2024-01-15T00:32:47;3.30;99.90
21487;DHT22;10905;50.822;4.336;2024-01-15T00:35:12;3.30;99.90
21487;DHT22;10905;50.822;4.336;2024-01-15T00:37:38;3.30;99.90
21487;DHT22;10905;50.822;4.336;2024-01-15T00:40:05;3.30;99.90
21487;DHT22;10905;50.822;4.336;2024-01-15T00:42:31;3.40;99.90
21487;DHT22;10905;50.822;4.336;2024-01-15T00:44:56;3.40;99.90
21487;DHT22;10905;50.822;4.336;2024-01-15T00:47:22;3.50;99.90
21487;DHT22;10905;50.822;4.336;2024-01-15T00:49:48;3.50;99.90
21487;DHT22;10905;50.822;4.336;2024-01-15T00:52:13;3.50;99.90
21487;DHT22;10905;50.822;4.336;2024-01-15T00:54:39;3.50;99.90
21487;DHT22;10905;50.822;4.336;2024-01-15T00:57:05;3.60;99.90
21487;DHT22;10905;50.822;4.336;2024-01-15T00:59:31;3.60;99.90
21487;DHT22;10905;50.822;4.336;2024-01-15T01:01:56;3.50;99.90
21487;DHT22;10905;50.822;4.336;2024-01-15T01:04:22;3.50;99.90
21487;DHT22;10905;50.822;4.336;2024-01-15T01:06:47;3.60;99.90
21487;DHT22;10905;50.822;4.336;2024-01-15T01:09:13;3.60;99.90
21487;DHT22;10905;50.822;4.336;2024-01-15T01:11:39;3.50;99.90
21487;DHT22;10905;50.822;4.336;2024-01-15T01:14:05;3.60;99.90
21487;DHT22;10905;50.822;4.336;2024-01-15T01:16:31;3.60;99.90
21487;DHT22;10905;50.822;4.336;2024-01-15T01:18:59;3.70;99.90
21487;DHT22;10905;50.822;4.336;2024-01-15T01:21:25;3.70;99.90
21487;DHT22;10905;50.822;4.336;2024-01-15T01:23:50;3.70;99.90
21487;DHT22;10905;50.822;4.336;2024-01-15T01:26:17;3.70;99.90
21487;DHT22;10905;50.822;4.336;2024-01-15T01:28:43;3.70;99.90
21487;DHT22;10905;50.822;4.336;2024-01-15T01:31:08;3.70;99.90
21487;DHT22;10905;50.822;4.336;2024-01-15T01:33:34;3.70;99.90
21487;DHT22;10905;50.822;4.336;2024-01-15T01:35:59;3.70;99.90
21487;DHT22;10905;50.822;4.336;2024-01-15T01:38:25;3.70;99.90
21487;DHT22;10905;50.822;4.336;2024-01-15T01:40:50;3.70;99.90
21487;DHT22;10905;50.822;4.336;2024-01-15T01:43:16;3.60;99.90
21487;DHT22;10905;50.822;4.336;2024-01-15T01:45:42;3.60;99.90
21487;DHT22;10905;50.822;4.336;2024-01-15T01:48:08;3.60;99.90
21487;DHT22;10905;50.822;4.336;2024-01-15T01:50:33;3.60;99.90
21487;DHT22;10905;50.822;4.336;2024-01-15T01:53:00;3.60;99.90
21487;DHT22;10905;50.822;4.336;2024-01-15T01:55:27;3.50;99.90
21487;DHT22;10905;50.822;4.336;2024-01-15T01:57:55;3.60;99.90
21487;DHT22;10905;50.822;4.336;2024-01-15T02:00:20;3.50;99.90
21487;DHT22;10905;50.822;4.336;2024-01-15T02:02:46;3.60;99.90
21487;DHT22;10905;50.822;4.336;2024-01-15T02:05:14;3.60;99.90
21487;DHT22;10905;50.822;4.336;2024-01-15T02:07:41;3.70;99.90
21487;DHT22;10905;50.822;4.336;2024-01-15T02:10:06;3.60;99.90
21487;DHT22;10905;50.822;4.336;2024-01-15T02:12:32;3.60;99.90
21487;DHT22;10905;50.822;4.336;2024-01-15T02:14:58;3.60;99.90
21487;DHT22;10905;50.822;4.336;2024-01-15T02:17:24;3.60;99.90
21487;DHT22;10905;50.822;4.336;2024-01-15T02:19:50;3.60;99.90
21487;DHT22;10905;50.822;4.336;2024-01-15T02:22:15;3.60;99.90
21487;DHT22;10905;50.822;4.336;2024-01-15T02:24:41;3.70;99.90
21487;DHT22;10905;50.822;4.336;2024-01-15T02:27:07;3.60;99.90
21487;DHT22;10905;50.822;4.336;2024-01-15T02:29:33;3.70;99.90
21487;DHT22;10905;50.822;4.336;2024-01-15T02:31:58;3.60;99.90
21487;DHT22;10905;50.822;4.336;2024-01-15T02:34:24;3.60;99.90
21487;DHT22;10905;50.822;4.336;2024-01-15T02:36:49;3.60;99.90
21487;DHT22;10905;50.822;4.336;2024-01-15T02:39:15;3.60;99.90
21487;DHT22;10905;50.822;4.336;2024-01-15T02:41:41;3.60;99.90
21487;DHT22;10905;50.822;4.336;2024-01-15T02:44:06;3.60;99.90
21487;DHT22;10905;50.822;4.336;2024-01-15T02:46:32;3.50;99.90
21487;DHT22;10905;50.822;4.336;2024-01-15T02:48:57;3.50;99.90
21487;DHT22;10905;50.822;4.336;2024-01-15T02:51:23;3.50;99.90
21487;DHT22;10905;50.822;4.336;2024-01-15T02:53:51;3.40;99.90
21487;DHT22;10905;50.822;4.336;2024-01-15T02:56:17;3.50;99.90
21487;DHT22;10905;50.822;4.336;2024-01-15T02:58:42;3.50;99.90
21487;DHT22;10905;50.822;4.336;2024-01-15T03:01:08;3.50;99.90
21487;DHT22;10905;50.822;4.336;2024-01-15T03:03:34;3.50;99.90
21487;DHT22;10905;50.822;4.336;2024-01-15T03:05:59;3.50;99.90
21487;DHT22;10905;50.822;4.336;2024-01-15T03:08:26;3.50;99.90
21487;DHT22;10905;50.822;4.336;2024-01-15T03:10:52;3.40;99.90
21487;DHT22;10905;50.822;4.336;2024-01-15T03:13:17;3.60;99.90
21487;DHT22;10905;50.822;4.336;2024-01-15T03:15:44;3.50;99.90
21487;DHT22;10905;50.822;4.336;2024-01-15T03:18:10;3.50;99.90
21487;DHT22;10905;50.822;4.336;2024-01-15T03:20:35;3.50;99.90
21487;DHT22;10905;50.822;4.336;2024-01-15T03:23:01;3.50;99.90
21487;DHT22;10905;50.822;4.336;2024-01-15T03:25:27;3.50;99.90
21487;DHT22;10905;50.822;4.336;2024-01-15T03:27:52;3.50;99.90
21487;DHT22;10905;50.822;4.336;2024-01-15T03:30:18;3.50;99.90
21487;DHT22;10905;50.822;4.336;2024-01-15T03:32:43;3.50;99.90
21487;DHT22;10905;50.822;4.336;2024-01-15T03:35:09;3.40;99.90
21487;DHT22;10905;50.822;4.336;2024-01-15T03:37:34;3.30;99.90
21487;DHT22;10905;50.822;4.336;2024-01-15T03:40:01;3.40;99.90
21487;DHT22;10905;50.822;4.336;2024-01-15T03:42:26;3.60;99.90
21487;DHT22;10905;50.822;4.336;2024-01-15T03:44:52;3.60;99.90
21487;DHT22;10905;50.822;4.336;2024-01-15T03:47:17;3.60;99.90
21487;DHT22;10905;50.822;4.336;2024-01-15T03:49:43;3.60;99.90
21487;DHT22;10905;50.822;4.336;2024-01-15T03:52:08;3.50;99.90
21487;DHT22;10905;50.822;4.336;2024-01-15T03:54:34;3.40;99.90
21487;DHT22;10905;50.822;4.336;2024-01-15T03:56:59;3.40;99.90
21487;DHT22;10905;50.822;4.336;2024-01-15T03:59:26;3.40;99.90
21487;DHT22;10905;50.822;4.336;2024-01-15T04:01:51;3.50;99.90
21487;DHT22;10905;50.822;4.336;2024-01-15T04:04:18;3.50;99.90
21487;DHT22;10905;50.822;4.336;2024-01-15T04:06:43;3.40;99.90
21487;DHT22;10905;50.822;4.336;2024-01-15T04:09:09;3.50;99.90
21487;DHT22;10905;50.822;4.336;2024-01-15T04:11:35;3.50;99.90
21487;DHT22;10905;50.822;4.336;2024-01-15T04:14:00;3.50;99.90
21487;DHT22;10905;50.822;4.336;2024-01-15T04:16:26;3.40;99.90
21487;DHT22;10905;50.822;4.336;2024-01-15T04:18:51;3.30;99.90
21487;DHT22;10905;50.822;4.336;2024-01-15T04:21:17;3.40;99.90
21487;DHT22;10905;50.822;4.336;2024-01-15T04:23:43;3.40;99.90
21487;DHT22;10905;50.822;4.336;2024-01-15T04:26:09;3.50;99.90
21487;DHT22;10905;50.822;4.336;2024-01-15T04:28:35;3.50;99.90
21487;DHT22;10905;50.822;4.336;2024-01-15T04:31:00;3.50;99.90
21487;DHT22;10905;50.822;4.336;2024-01-15T04:33:26;3.50;99.90
21487;DHT22;10905;50.822;4.336;2024-01-15T04:35:51;3.70;99.90
21487;DHT22;10905;50.822;4.336;2024-01-15T04:38:17;3.70;99.90
21487;DHT22;10905;50.822;4.336;2024-01-15T04:40:42;3.70;99.90
21487;DHT22;10905;50.822;4.336;2024-01-15T04:43:08;3.70;99.90
21487;DHT22;10905;50.822;4.336;2024-01-15T04:45:34;3.70;99.90
21487;DHT22;10905;50.822;4.336;2024-01-15T04:47:59;3.70;99.90
21487;DHT22;10905;50.822;4.336;2024-01-15T04:50:25;3.70;99.90
21487;DHT22;10905;50.822;4.336;2024-01-15T04:52:50;3.60;99.90
21487;DHT22;10905;50.822;4.336;2024-01-15T04:55:16;3.50;99.90
21487;DHT22;10905;50.822;4.336;2024-01-15T04:57:41;3.50;99.90
21487;DHT22;10905;50.822;4.336;2024-01-15T05:00:07;3.40;99.90
21487;DHT22;10905;50.822;4.336;2024-01-15T05:02:33;3.40;99.90
21487;DHT22;10905;50.822;4.336;2024-01-15T05:04:59;3.50;99.90
21487;DHT22;10905;50.822;4.336;2024-01-15T05:07:24;3.50;99.90
21487;DHT22;10905;50.822;4.336;2024-01-15T05:09:50;3.50;99.90
21487;DHT22;10905;50.822;4.336;2024-01-15T05:12:15;3.50;99.90
21487;DHT22;10905;50.822;4.336;2024-01-15T05:14:41;3.50;99.90
21487;DHT22;10905;50.822;4.336;2024-01-15T05:17:06;3.40;99.90
21487;DHT22;10905;50.822;4.336;2024-01-15T05:19:32;3.40;99.90
21487;DHT22;10905;50.822;4.336;2024-01-15T05:21:58;3.30;99.90
21487;DHT22;10905;50.822;4.336;2024-01-15T05:24:23;3.30;99.90
21487;DHT22;10905;50.822;4.336;2024-01-15T05:26:49;3.30;99.90
21487;DHT22;10905;50.822;4.336;2024-01-15T05:29:14;3.30;99.90
21487;DHT22;10905;50.822;4.336;2024-01-15T05:31:40;3.20;99.90
21487;DHT22;10905;50.822;4.336;2024-01-15T05:34:06;3.20;99.90
21487;DHT22;10905;50.822;4.336;2024-01-15T05:36:31;3.20;99.90
21487;DHT22;10905;50.822;4.336;2024-01-15T05:38:57;3.20;99.90
21487;DHT22;10905;50.822;4.336;2024-01-15T05:41:22;3.10;99.90
21487;DHT22;10905;50.822;4.336;2024-01-15T05:43:48;3.10;99.90
21487;DHT22;10905;50.822;4.336;2024-01-15T05:46:13;3.20;99.90
21487;DHT22;10905;50.822;4.336;2024-01-15T05:48:40;3.00;99.90
21487;DHT22;10905;50.822;4.336;2024-01-15T05:51:06;3.10;99.90
21487;DHT22;10905;50.822;4.336;2024-01-15T05:53:32;3.00;99.90
21487;DHT22;10905;50.822;4.336;2024-01-15T05:55:57;3.00;99.90
21487;DHT22;10905;50.822;4.336;2024-01-15T05:58:23;3.00;99.90
21487;DHT22;10905;50.822;4.336;2024-01-15T06:00:48;3.10;99.90
21487;DHT22;10905;50.822;4.336;2024-01-15T06:03:15;3.10;99.90
21487;DHT22;10905;50.822;4.336;2024-01-15T06:05:41;3.20;99.90
21487;DHT22;10905;50.822;4.336;2024-01-15T06:08:06;3.10;99.90
21487;DHT22;10905;50.822;4.336;2024-01-15T06:10:32;3.20;99.90
21487;DHT22;10905;50.822;4.336;2024-01-15T06:12:57;3.10;99.90
21487;DHT22;10905;50.822;4.336;2024-01-15T06:15:23;3.00;99.90
21487;DHT22;10905;50.822;4.336;2024-01-15T06:17:48;3.10;99.90
21487;DHT22;10905;50.822;4.336;2024-01-15T06:20:14;3.00;99.90
21487;DHT22;10905;50.822;4.336;2024-01-15T06:22:40;3.00;99.90
21487;DHT22;10905;50.822;4.336;2024-01-15T06:25:07;2.90;99.90
21487;DHT22;10905;50.822;4.336;2024-01-15T06:27:33;2.90;99.90
21487;DHT22;10905;50.822;4.336;2024-01-15T06:29:59;2.80;99.90
21487;DHT22;10905;50.822;4.336;2024-01-15T06:32:25;2.90;99.90
21487;DHT22;10905;50.822;4.336;2024-01-15T06:34:51;2.90;99.90
21487;DHT22;10905;50.822;4.336;2024-01-15T06:37:16;2.90;99.90
21487;DHT22;10905;50.822;4.336;2024-01-15T06:39:44;2.90;99.90
21487;DHT22;10905;50.822;4.336;2024-01-15T06:42:10;2.70;99.90
21487;DHT22;10905;50.822;4.336;2024-01-15T06:44:35;2.60;99.90
21487;DHT22;10905;50.822;4.336;2024-01-15T06:47:01;2.70;99.90
21487;DHT22;10905;50.822;4.336;2024-01-15T06:49:31;2.70;99.90
21487;DHT22;10905;50.822;4.336;2024-01-15T06:51:56;2.60;99.90
21487;DHT22;10905;50.822;4.336;2024-01-15T06:54:22;2.80;99.90
21487;DHT22;10905;50.822;4.336;2024-01-15T06:56:49;2.70;99.90
21487;DHT22;10905;50.822;4.336;2024-01-15T06:59:14;2.70;99.90
21487;DHT22;10905;50.822;4.336;2024-01-15T07:01:40;2.70;99.90
21487;DHT22;10905;50.822;4.336;2024-01-15T07:04:06;2.60;99.90
21487;DHT22;10905;50.822;4.336;2024-01-15T07:06:31;2.60;99.90
21487;DHT22;10905;50.822;4.336;2024-01-15T07:08:57;2.70;99.90
21487;DHT22;10905;50.822;4.336;2024-01-15T07:11:23;2.70;99.90
21487;DHT22;10905;50.822;4.336;2024-01-15T07:13:49;2.70;99.90
21487;DHT22;10905;50.822;4.336;2024-01-15T07:16:14;2.80;99.90
21487;DHT22;10905;50.822;4.336;2024-01-15T07:18:40;2.80;99.90
21487;DHT22;10905;50.822;4.336;2024-01-15T07:21:06;2.70;99.90
21487;DHT22;10905;50.822;4.336;2024-01-15T07:23:32;2.70;99.90
21487;DHT22;10905;50.822;4.336;2024-01-15T07:25:58;2.70;99.90
21487;DHT22;10905;50.822;4.336;2024-01-15T07:28:23;2.60;99.90
21487;DHT22;10905;50.822;4.336;2024-01-15T07:30:49;2.50;99.90
21487;DHT22;10905;50.822;4.336;2024-01-15T07:33:15;2.50;99.90
21487;DHT22;10905;50.822;4.336;2024-01-15T07:35:40;2.60;99.90
21487;DHT22;10905;50.822;4.336;2024-01-15T07:38:06;2.60;99.90
21487;DHT22;10905;50.822;4.336;2024-01-15T07:40:32;2.60;99.90
21487;DHT22;10905;50.822;4.336;2024-01-15T07:42:57;2.60;99.90
21487;DHT22;10905;50.822;4.336;2024-01-15T07:45:23;2.60;99.90
21487;DHT22;10905;50.822;4.336;2024-01-15T07:47:49;2.60;99.90
21487;DHT22;10905;50.822;4.336;2024-01-15T07:50:14;2.70;99.90
21487;DHT22;10905;50.822;4.336;2024-01-15T07:52:40;2.60;99.90
21487;DHT22;10905;50.822;4.336;2024-01-15T07:55:09;2.60;99.90
21487;DHT22;10905;50.822;4.336;2024-01-15T07:57:35;2.60;99.90
21487;DHT22;10905;50.822;4.336;2024-01-15T08:00:01;2.50;99.90
21487;DHT22;10905;50.822;4.336;2024-01-15T08:02:29;2.50;99.90
21487;DHT22;10905;50.822;4.336;2024-01-15T08:04:54;2.50;99.90
21487;DHT22;10905;50.822;4.336;2024-01-15T08:07:20;2.60;99.90
21487;DHT22;10905;50.822;4.336;2024-01-15T08:09:45;2.50;99.90
21487;DHT22;10905;50.822;4.336;2024-01-15T08:12:13;2.70;99.90
21487;DHT22;10905;50.822;4.336;2024-01-15T08:14:38;2.80;99.90
21487;DHT22;10905;50.822;4.336;2024-01-15T08:17:04;2.80;99.90
21487;DHT22;10905;50.822;4.336;2024-01-15T08:19:30;2.80;99.90
21487;DHT22;10905;50.822;4.336;2024-01-15T08:21:55;2.80;99.90
21487;DHT22;10905;50.822;4.336;2024-01-15T08:24:21;2.80;99.90
21487;DHT22;10905;50.822;4.336;2024-01-15T08:26:46;2.80;99.90
21487;DHT22;10905;50.822;4.336;2024-01-15T08:29:12;2.70;99.90
21487;DHT22;10905;50.822;4.336;2024-01-15T08:31:38;2.80;99.90
21487;DHT22;10905;50.822;4.336;2024-01-15T08:34:03;2.80;99.90
21487;DHT22;10905;50.822;4.336;2024-01-15T08:36:29;2.80;99.90
21487;DHT22;10905;50.822;4.336;2024-01-15T08:38:58;2.80;99.90
21487;DHT22;10905;50.822;4.336;2024-01-15T08:41:23;2.80;99.90
21487;DHT22;10905;50.822;4.336;2024-01-15T08:43:49;2.70;99.90
21487;DHT22;10905;50.822;4.336;2024-01-15T08:46:15;2.80;99.90
21487;DHT22;10905;50.822;4.336;2024-01-15T08:48:40;2.80;99.90
21487;DHT22;10905;50.822;4.336;2024-01-15T08:51:06;2.90;99.90
21487;DHT22;10905;50.822;4.336;2024-01-15T08:53:33;2.90;99.90
21487;DHT22;10905;50.822;4.336;2024-01-15T08:55:58;2.90;99.90
21487;DHT22;10905;50.822;4.336;2024-01-15T08:58:24;2.90;99.90
21487;DHT22;10905;50.822;4.336;2024-01-15T09:00:51;2.90;99.90
21487;DHT22;10905;50.822;4.336;2024-01-15T09:03:17;2.90;99.90
21487;DHT22;10905;50.822;4.336;2024-01-15T09:05:42;3.00;99.90
21487;DHT22;10905;50.822;4.336;2024-01-15T09:08:08;2.90;99.90
21487;DHT22;10905;50.822;4.336;2024-01-15T09:10:34;2.90;99.90
21487;DHT22;10905;50.822;4.336;2024-01-15T09:13:00;2.90;99.90
21487;DHT22;10905;50.822;4.336;2024-01-15T09:15:25;3.00;99.90
21487;DHT22;10905;50.822;4.336;2024-01-15T09:17:51;3.00;99.90
21487;DHT22;10905;50.822;4.336;2024-01-15T09:20:17;3.00;99.90
21487;DHT22;10905;50.822;4.336;2024-01-15T09:22:42;3.00;99.90
21487;DHT22;10905;50.822;4.336;2024-01-15T09:25:08;3.00;99.90
21487;DHT22;10905;50.822;4.336;2024-01-15T09:27:37;3.00;99.90
21487;DHT22;10905;50.822;4.336;2024-01-15T09:30:04;3.10;99.90
21487;DHT22;10905;50.822;4.336;2024-01-15T09:32:30;3.10;99.90
21487;DHT22;10905;50.822;4.336;2024-01-15T09:34:55;3.10;99.90
21487;DHT22;10905;50.822;4.336;2024-01-15T09:37:21;3.20;99.90
21487;DHT22;10905;50.822;4.336;2024-01-15T09:39:47;3.20;99.90
21487;DHT22;10905;50.822;4.336;2024-01-15T09:42:14;3.10;99.90
21487;DHT22;10905;50.822;4.336;2024-01-15T09:44:40;3.20;99.90
21487;DHT22;10905;50.822;4.336;2024-01-15T09:47:06;3.30;99.90
21487;DHT22;10905;50.822;4.336;2024-01-15T09:49:33;3.30;99.90
21487;DHT22;10905;50.822;4.336;2024-01-15T09:51:58;3.20;99.90
21487;DHT22;10905;50.822;4.336;2024-01-15T09:54:25;3.20;99.90
21487;DHT22;10905;50.822;4.336;2024-01-15T09:56:50;3.20;99.90
21487;DHT22;10905;50.822;4.336;2024-01-15T09:59:18;3.30;99.90
21487;DHT22;10905;50.822;4.336;2024-01-15T10:01:47;3.40;99.90
21487;DHT22;10905;50.822;4.336;2024-01-15T10:04:15;3.40;99.90
21487;DHT22;10905;50.822;4.336;2024-01-15T10:06:45;3.50;99.90
21487;DHT22;10905;50.822;4.336;2024-01-15T10:09:14;3.60;99.90
21487;DHT22;10905;50.822;4.336;2024-01-15T10:11:43;3.70;99.90
21487;DHT22;10905;50.822;4.336;2024-01-15T10:14:10;3.70;99.90
21487;DHT22;10905;50.822;4.336;2024-01-15T10:16:38;3.70;99.90
21487;DHT22;10905;50.822;4.336;2024-01-15T10:19:04;3.70;99.90
21487;DHT22;10905;50.822;4.336;2024-01-15T10:21:32;3.60;99.90
21487;DHT22;10905;50.822;4.336;2024-01-15T10:24:00;3.60;99.90
21487;DHT22;10905;50.822;4.336;2024-01-15T10:26:26;3.60;99.90
21487;DHT22;10905;50.822;4.336;2024-01-15T10:28:52;3.70;99.90
21487;DHT22;10905;50.822;4.336;2024-01-15T10:31:18;3.80;99.90
21487;DHT22;10905;50.822;4.336;2024-01-15T10:33:45;3.80;99.90
21487;DHT22;10905;50.822;4.336;2024-01-15T10:36:10;3.60;99.90
21487;DHT22;10905;50.822;4.336;2024-01-15T10:38:39;3.60;99.90
21487;DHT22;10905;50.822;4.336;2024-01-15T10:41:04;3.70;99.90
21487;DHT22;10905;50.822;4.336;2024-01-15T10:43:30;3.60;99.90
21487;DHT22;10905;50.822;4.336;2024-01-15T10:45:55;3.70;99.90
21487;DHT22;10905;50.822;4.336;2024-01-15T10:48:21;3.70;99.90
21487;DHT22;10905;50.822;4.336;2024-01-15T10:50:47;3.70;99.90
21487;DHT22;10905;50.822;4.336;2024-01-15T10:53:15;3.60;99.90
21487;DHT22;10905;50.822;4.336;2024-01-15T10:55:42;3.60;99.90
21487;DHT22;10905;50.822;4.336;2024-01-15T10:58:09;3.80;99.90
21487;DHT22;10905;50.822;4.336;2024-01-15T11:00:38;3.80;99.90
21487;DHT22;10905;50.822;4.336;2024-01-15T11:03:05;3.90;99.90
21487;DHT22;10905;50.822;4.336;2024-01-15T11:05:37;4.00;99.90
21487;DHT22;10905;50.822;4.336;2024-01-15T11:08:05;4.10;99.90
21487;DHT22;10905;50.822;4.336;2024-01-15T11:10:40;4.30;99.90
21487;DHT22;10905;50.822;4.336;2024-01-15T11:13:13;4.30;99.90
21487;DHT22;10905;50.822;4.336;2024-01-15T11:15:59;4.40;99.90
21487;DHT22;10905;50.822;4.336;2024-01-15T11:18:31;4.40;99.90
21487;DHT22;10905;50.822;4.336;2024-01-15T11:26:32;4.20;99.90
21487;DHT22;10905;50.822;4.336;2024-01-15T11:29:00;4.20;99.90
21487;DHT22;10905;50.822;4.336;2024-01-15T11:31:30;4.30;99.90
21487;DHT22;10905;50.822;4.336;2024-01-15T11:34:15;4.20;99.90
21487;DHT22;10905;50.822;4.336;2024-01-15T11:41:58;4.30;99.90
21487;DHT22;10905;50.822;4.336;2024-01-15T11:44:25;4.30;99.90
21487;DHT22;10905;50.822;4.336;2024-01-15T11:47:02;4.30;99.90
21487;DHT22;10905;50.822;4.336;2024-01-15T11:52:20;4.50;99.90
21487;DHT22;10905;50.822;4.336;2024-01-15T11:57:22;4.50;99.90
21487;DHT22;10905;50.822;4.336;2024-01-15T11:59:49;4.60;99.90
21487;DHT22;10905;50.822;4.336;2024-01-15T12:02:15;4.50;99.90
21487;DHT22;10905;50.822;4.336;2024-01-15T12:04:40;4.50;99.90
21487;DHT22;10905;50.822;4.336;2024-01-15T12:07:06;4.50;99.90
21487;DHT22;10905;50.822;4.336;2024-01-15T12:09:32;4.50;99.90
21487;DHT22;10905;50.822;4.336;2024-01-15T12:12:07;4.60;99.90
21487;DHT22;10905;50.822;4.336;2024-01-15T12:14:37;4.50;99.90
21487;DHT22;10905;50.822;4.336;2024-01-15T12:17:03;4.50;99.90
21487;DHT22;10905;50.822;4.336;2024-01-15T12:19:29;4.50;99.90
21487;DHT22;10905;50.822;4.336;2024-01-15T12:21:55;4.40;99.90
21487;DHT22;10905;50.822;4.336;2024-01-15T12:24:21;4.40;99.90
21487;DHT22;10905;50.822;4.336;2024-01-15T12:26:47;4.70;99.90
21487;DHT22;10905;50.822;4.336;2024-01-15T12:29:12;4.90;99.90
21487;DHT22;10905;50.822;4.336;2024-01-15T12:31:38;5.00;99.90
21487;DHT22;10905;50.822;4.336;2024-01-15T12:34:03;5.10;99.90
21487;DHT22;10905;50.822;4.336;2024-01-15T12:36:32;5.20;99.90
21487;DHT22;10905;50.822;4.336;2024-01-15T12:39:01;5.20;99.90
21487;DHT22;10905;50.822;4.336;2024-01-15T12:41:26;5.20;99.90
21487;DHT22;10905;50.822;4.336;2024-01-15T12:43:52;5.10;99.90
21487;DHT22;10905;50.822;4.336;2024-01-15T12:46:18;5.10;99.90
21487;DHT22;10905;50.822;4.336;2024-01-15T12:48:44;5.00;99.90
21487;DHT22;10905;50.822;4.336;2024-01-15T12:51:10;5.00;99.90
21487;DHT22;10905;50.822;4.336;2024-01-15T12:53:36;5.00;99.90
21487;DHT22;10905;50.822;4.336;2024-01-15T12:56:01;4.90;99.90
21487;DHT22;10905;50.822;4.336;2024-01-15T12:58:27;4.70;99.90
21487;DHT22;10905;50.822;4.336;2024-01-15T13:00:52;4.70;99.90
21487;DHT22;10905;50.822;4.336;2024-01-15T13:03:18;4.80;99.90
21487;DHT22;10905;50.822;4.336;2024-01-15T13:05:44;4.80;99.90
21487;DHT22;10905;50.822;4.336;2024-01-15T13:08:10;4.80;99.90
21487;DHT22;10905;50.822;4.336;2024-01-15T13:10:36;4.80;99.90
21487;DHT22;10905;50.822;4.336;2024-01-15T13:13:01;4.60;99.90
21487;DHT22;10905;50.822;4.336;2024-01-15T13:15:27;4.30;99.90
21487;DHT22;10905;50.822;4.336;2024-01-15T13:17:53;4.20;99.90
21487;DHT22;10905;50.822;4.336;2024-01-15T13:20:18;4.20;99.90
21487;DHT22;10905;50.822;4.336;2024-01-15T13:22:44;4.30;99.90
21487;DHT22;10905;50.822;4.336;2024-01-15T13:25:10;4.40;99.90
21487;DHT22;10905;50.822;4.336;2024-01-15T13:27:36;4.50;99.90
21487;DHT22;10905;50.822;4.336;2024-01-15T13:30:03;4.60;99.90
21487;DHT22;10905;50.822;4.336;2024-01-15T13:32:29;4.80;99.90
21487;DHT22;10905;50.822;4.336;2024-01-15T13:34:56;4.80;99.90
21487;DHT22;10905;50.822;4.336;2024-01-15T13:37:22;4.80;99.90
21487;DHT22;10905;50.822;4.336;2024-01-15T13:39:50;4.90;99.90
21487;DHT22;10905;50.822;4.336;2024-01-15T13:42:17;4.90;99.90
21487;DHT22;10905;50.822;4.336;2024-01-15T13:44:43;4.80;99.90
21487;DHT22;10905;50.822;4.336;2024-01-15T13:47:09;4.80;99.90
21487;DHT22;10905;50.822;4.336;2024-01-15T13:49:35;4.80;99.90
21487;DHT22;10905;50.822;4.336;2024-01-15T13:52:02;4.80;99.90
21487;DHT22;10905;50.822;4.336;2024-01-15T13:54:29;4.80;99.90
21487;DHT22;10905;50.822;4.336;2024-01-15T13:56:55;4.80;99.90
21487;DHT22;10905;50.822;4.336;2024-01-15T13:59:21;4.80;99.90
21487;DHT22;10905;50.822;4.336;2024-01-15T14:01:46;4.70;99.90
21487;DHT22;10905;50.822;4.336;2024-01-15T14:04:12;4.70;99.90
21487;DHT22;10905;50.822;4.336;2024-01-15T14:06:38;4.80;99.90
21487;DHT22;10905;50.822;4.336;2024-01-15T14:09:04;4.60;99.90
21487;DHT22;10905;50.822;4.336;2024-01-15T14:11:30;4.50;99.90
21487;DHT22;10905;50.822;4.336;2024-01-15T14:13:56;4.20;99.90
21487;DHT22;10905;50.822;4.336;2024-01-15T14:16:22;4.20;99.90
21487;DHT22;10905;50.822;4.336;2024-01-15T14:18:47;4.20;99.90
21487;DHT22;10905;50.822;4.336;2024-01-15T14:21:13;4.30;99.90
21487;DHT22;10905;50.822;4.336;2024-01-15T14:23:39;4.20;99.90
21487;DHT22;10905;50.822;4.336;2024-01-15T14:26:05;4.40;99.90
21487;DHT22;10905;50.822;4.336;2024-01-15T14:28:31;4.40;99.90
21487;DHT22;10905;50.822;4.336;2024-01-15T14:30:56;4.40;99.90
21487;DHT22;10905;50.822;4.336;2024-01-15T14:33:24;4.40;99.90
21487;DHT22;10905;50.822;4.336;2024-01-15T14:35:50;4.30;99.90
21487;DHT22;10905;50.822;4.336;2024-01-15T14:38:16;4.20;99.90
21487;DHT22;10905;50.822;4.336;2024-01-15T14:40:42;4.10;99.90
21487;DHT22;10905;50.822;4.336;2024-01-15T14:43:09;3.90;99.90
21487;DHT22;10905;50.822;4.336;2024-01-15T14:45:35;3.70;99.90
21487;DHT22;10905;50.822;4.336;2024-01-15T14:48:00;3.50;99.90
21487;DHT22;10905;50.822;4.336;2024-01-15T14:50:26;3.40;99.90
21487;DHT22;10905;50.822;4.336;2024-01-15T14:52:52;3.30;99.90
21487;DHT22;10905;50.822;4.336;2024-01-15T14:55:17;3.40;99.90
21487;DHT22;10905;50.822;4.336;2024-01-15T14:57:43;3.40;99.90
21487;DHT22;10905;50.822;4.336;2024-01-15T15:00:09;3.40;99.90
21487;DHT22;10905;50.822;4.336;2024-01-15T15:02:35;3.40;99.90
21487;DHT22;10905;50.822;4.336;2024-01-15T15:05:03;3.20;99.90
21487;DHT22;10905;50.822;4.336;2024-01-15T15:07:28;3.20;99.90
21487;DHT22;10905;50.822;4.336;2024-01-15T15:09:54;3.30;99.90
21487;DHT22;10905;50.822;4.336;2024-01-15T15:12:20;3.20;99.90
21487;DHT22;10905;50.822;4.336;2024-01-15T15:14:45;3.10;99.90
21487;DHT22;10905;50.822;4.336;2024-01-15T15:17:11;3.00;99.90
21487;DHT22;10905;50.822;4.336;2024-01-15T15:19:37;2.90;99.90
21487;DHT22;10905;50.822;4.336;2024-01-15T15:22:05;2.80;99.90
21487;DHT22;10905;50.822;4.336;2024-01-15T15:24:31;2.90;99.90
21487;DHT22;10905;50.822;4.336;2024-01-15T15:26:56;3.00;99.90
21487;DHT22;10905;50.822;4.336;2024-01-15T15:29:22;2.90;99.90
21487;DHT22;10905;50.822;4.336;2024-01-15T15:31:50;2.80;99.90
21487;DHT22;10905;50.822;4.336;2024-01-15T15:34:15;2.90;99.90
21487;DHT22;10905;50.822;4.336;2024-01-15T15:36:41;2.90;99.90
21487;DHT22;10905;50.822;4.336;2024-01-15T15:39:06;3.00;99.90
21487;DHT22;10905;50.822;4.336;2024-01-15T15:41:32;3.00;99.90
21487;DHT22;10905;50.822;4.336;2024-01-15T15:43:58;3.00;99.90
21487;DHT22;10905;50.822;4.336;2024-01-15T15:46:23;3.10;99.90
21487;DHT22;10905;50.822;4.336;2024-01-15T15:48:49;3.10;99.90
21487;DHT22;10905;50.822;4.336;2024-01-15T15:51:14;3.00;99.90
21487;DHT22;10905;50.822;4.336;2024-01-15T15:53:40;2.80;99.90